Time;durP1;ratioP1;P1;durP2;ratioP2;P2;SDS_P1;SDS_P2;PMS_P1;PMS_P2;Temp;Humidity;BMP_temperature;BMP_pressure;BME280_temperature;BME280_humidity;BME280_pressure;Samples;Min_cycle;Max_cycle;Signal;HPM_P1;HPM_P2
2023/03/28 00:01:55;;;;;;;4.57;1.55;;;;;;;;;;5054981;28;20028;-64
2023/03/28 00:04:21;;;;;;;3.40;1.30;;;;;;;;;;5054540;28;20032;-64
2023/03/28 00:06:48;;;;;;;6.18;1.40;;;;;;;;;;5054649;28;20021;-64
2023/03/28 00:09:15;;;;;;;5.28;1.52;;;;;;;;;;5054386;28;20033;-64
2023/03/28 00:11:42;;;;;;;7.90;1.83;;;;;;;;;;5054598;28;20025;-64
2023/03/28 00:14:08;;;;;;;4.80;1.67;;;;;;;;;;5054560;28;20020;-64
2023/03/28 00:16:38;;;;;;;5.78;1.70;;;;;;;;;;5054275;28;20021;-64
2023/03/28 00:19:06;;;;;;;4.78;1.33;;;;;;;;;;5054114;28;20021;-64
2023/03/28 00:21:34;;;;;;;4.93;1.30;;;;;;;;;;5054523;28;20090;-63
2023/03/28 00:24:01;;;;;;;6.15;1.83;;;;;;;;;;5054527;28;20021;-64
2023/03/28 00:26:34;;;;;;;5.30;1.90;;;;;;;;;;5054424;28;20025;-64
2023/03/28 00:29:02;;;;;;;8.13;2.30;;;;;;;;;;5053712;28;20045;-64
2023/03/28 00:31:29;;;;;;;6.80;1.80;;;;;;;;;;5054306;28;20036;-64
2023/03/28 00:33:56;;;;;;;5.20;1.50;;;;;;;;;;5053862;28;20420;-64
2023/03/28 00:36:25;;;;;;;6.60;2.13;;;;;;;;;;5053974;28;20027;-64
2023/03/28 00:38:56;;;;;;;6.93;1.63;;;;;;;;;;5054124;28;20017;-64
2023/03/28 00:41:23;;;;;;;4.20;1.42;;;;;;;;;;5053831;28;20500;-64
2023/03/28 00:43:51;;;;;;;3.75;1.40;;;;;;;;;;5053772;28;20025;-64
2023/03/28 00:46:38;;;;;;;6.32;1.50;;;;;;;;;;5053727;28;20524;-64
2023/03/28 00:49:21;;;;;;;5.93;1.63;;;;;;;;;;5053564;28;20067;-64
2023/03/28 00:51:49;;;;;;;6.15;1.73;;;;;;;;;;5053584;28;20031;-64
2023/03/28 00:54:18;;;;;;;6.32;1.75;;;;;;;;;;5053572;28;20255;-64
2023/03/28 00:56:46;;;;;;;4.03;1.42;;;;;;;;;;5053633;28;20087;-64
2023/03/28 00:59:16;;;;;;;6.30;1.45;;;;;;;;;;5052252;28;20021;-64
2023/03/28 01:01:43;;;;;;;4.00;1.48;;;;;;;;;;5053161;28;20025;-64
2023/03/28 01:04:09;;;;;;;8.45;1.50;;;;;;;;;;5053815;28;20036;-64
2023/03/28 01:06:41;;;;;;;7.30;1.58;;;;;;;;;;5053763;28;20047;-64
2023/03/28 01:09:08;;;;;;;4.50;1.55;;;;;;;;;;5053269;28;20044;-64
2023/03/28 01:11:36;;;;;;;6.07;1.63;;;;;;;;;;5053380;28;20028;-64
2023/03/28 01:14:03;;;;;;;5.40;1.83;;;;;;;;;;5053212;28;20029;-64
2023/03/28 01:16:29;;;;;;;4.47;1.63;;;;;;;;;;5052802;28;20404;-64
2023/03/28 01:19:00;;;;;;;8.18;1.70;;;;;;;;;;5053157;28;20033;-64
2023/03/28 01:21:27;;;;;;;;;;;;;;;;;;5053593;28;20017;-64
2023/03/28 01:23:56;;;;;;;6.10;1.90;;;;;;;;;;5053109;28;19909;-64
2023/03/28 01:26:32;;;;;;;5.85;1.70;;;;;;;;;;5052939;28;20393;-64
2023/03/28 01:29:09;;;;;;;6.47;2.13;;;;;;;;;;5052642;28;20532;-64
2023/03/28 01:31:45;;;;;;;5.88;1.88;;;;;;;;;;5051511;28;20040;-64
2023/03/28 01:34:41;;;;;;;6.25;1.58;;;;;;;;;;5052911;28;20032;-64
2023/03/28 01:37:26;;;;;;;4.60;1.40;;;;;;;;;;5030602;28;20445;-64
2023/03/28 01:39:52;;;;;;;5.63;1.65;;;;;;;;;;5030737;28;20028;-64
2023/03/28 01:42:51;;;;;;;3.78;1.33;;;;;;;;;;5030561;28;20464;-64
2023/03/28 01:45:18;;;;;;;8.32;1.98;;;;;;;;;;4971841;28;20077;-64
2023/03/28 01:47:50;;;;;;;4.85;1.33;;;;;;;;;;4971678;28;20097;-64
2023/03/28 01:50:17;;;;;;;4.63;1.55;;;;;;;;;;4972021;28;20038;-64
2023/03/28 01:52:46;;;;;;;6.63;1.50;;;;;;;;;;4971744;28;20026;-63
2023/03/28 01:55:12;;;;;;;5.20;1.50;;;;;;;;;;4971643;28;20037;-64
2023/03/28 01:58:00;;;;;;;4.35;1.60;;;;;;;;;;4971558;28;20027;-64
2023/03/28 02:00:29;;;;;;;3.08;1.27;;;;;;;;;;4986661;28;20034;-64
2023/03/28 02:03:19;;;;;;;5.72;1.98;;;;;;;;;;4990984;28;20080;-64
2023/03/28 02:05:46;;;;;;;6.47;2.50;;;;;;;;;;4985547;28;20034;-64
2023/03/28 02:08:13;;;;;;;7.10;3.17;;;;;;;;;;4990772;28;20529;-63
2023/03/28 02:10:41;;;;;;;11.65;4.25;;;;;;;;;;4990453;28;20022;-62
2023/03/28 02:13:13;;;;;;;9.27;4.13;;;;;;;;;;4984065;28;20049;-63
2023/03/28 02:15:41;;;;;;;8.30;3.58;;;;;;;;;;4971570;28;20035;-64
2023/03/28 02:18:12;;;;;;;8.18;3.83;;;;;;;;;;4971380;28;20027;-63
2023/03/28 02:20:40;;;;;;;9.00;4.43;;;;;;;;;;4996160;28;20048;-64
2023/03/28 02:23:11;;;;;;;12.70;4.43;;;;;;;;;;5032174;28;20034;-64
2023/03/28 02:25:37;;;;;;;11.32;3.97;;;;;;;;;;5032163;28;20018;-64
2023/03/28 02:28:06;;;;;;;8.65;2.42;;;;;;;;;;5031817;28;20034;-64
2023/03/28 02:30:33;;;;;;;5.45;2.00;;;;;;;;;;5047645;28;20033;-64
2023/03/28 02:33:04;;;;;;;6.97;1.67;;;;;;;;;;5032062;28;20029;-64
2023/03/28 02:36:00;;;;;;;5.00;1.60;;;;;;;;;;5032076;28;20536;-64
2023/03/28 02:38:30;;;;;;;4.28;1.77;;;;;;;;;;5027540;28;20045;-64
2023/03/28 02:40:59;;;;;;;5.18;1.55;;;;;;;;;;5032140;28;20091;-64
2023/03/28 02:43:26;;;;;;;3.30;1.50;;;;;;;;;;5032085;28;20037;-64
2023/03/28 02:46:10;;;;;;;3.53;1.40;;;;;;;;;;5032241;28;20026;-64
2023/03/28 02:48:37;;;;;;;4.90;1.65;;;;;;;;;;5031896;28;20037;-64
2023/03/28 02:51:12;;;;;;;7.53;1.33;;;;;;;;;;5031889;28;20470;-63
2023/03/28 02:53:50;;;;;;;4.05;1.48;;;;;;;;;;5032013;28;20033;-64
2023/03/28 02:56:20;;;;;;;4.40;1.40;;;;;;;;;;5031827;28;20091;-64
2023/03/28 02:58:54;;;;;;;7.75;2.13;;;;;;;;;;5033776;28;20028;-64
2023/03/28 03:01:24;;;;;;;6.93;1.63;;;;;;;;;;5051796;28;20027;-64
2023/03/28 03:03:51;;;;;;;5.95;2.10;;;;;;;;;;5051896;28;20025;-64
2023/03/28 03:06:18;;;;;;;5.05;1.70;;;;;;;;;;5051593;28;20497;-63
2023/03/28 03:08:45;;;;;;;4.35;1.60;;;;;;;;;;5051737;28;20498;-64
2023/03/28 03:11:11;;;;;;;5.50;1.70;;;;;;;;;;5050437;28;20424;-63
2023/03/28 03:13:37;;;;;;;3.72;1.63;;;;;;;;;;5051409;28;20036;-64
2023/03/28 03:16:04;;;;;;;3.97;1.83;;;;;;;;;;5051966;28;20025;-64
2023/03/28 03:18:31;;;;;;;4.72;1.77;;;;;;;;;;5051447;28;20021;-64
2023/03/28 03:21:00;;;;;;;5.53;1.70;;;;;;;;;;5051582;28;20021;-63
2023/03/28 03:23:27;;;;;;;5.03;1.58;;;;;;;;;;5053989;28;20091;-64
2023/03/28 03:25:53;;;;;;;3.40;1.40;;;;;;;;;;5055197;28;20032;-63
2023/03/28 03:28:20;;;;;;;5.65;1.52;;;;;;;;;;5055143;28;20057;-64
2023/03/28 03:30:46;;;;;;;5.53;1.70;;;;;;;;;;5055345;28;20409;-64
2023/03/28 03:33:13;;;;;;;6.55;1.70;;;;;;;;;;5055476;28;20043;-64
2023/03/28 03:35:40;;;;;;;7.18;1.85;;;;;;;;;;5055284;28;20021;-64
2023/03/28 03:38:07;;;;;;;5.07;1.73;;;;;;;;;;5055156;28;20371;-63
2023/03/28 03:40:34;;;;;;;7.00;2.10;;;;;;;;;;5053625;28;20029;-63
2023/03/28 03:43:00;;;;;;;6.28;1.83;;;;;;;;;;5055340;28;20033;-63
2023/03/28 03:45:26;;;;;;;4.38;1.60;;;;;;;;;;5055035;28;20027;-63
2023/03/28 03:47:53;;;;;;;5.82;1.65;;;;;;;;;;5054891;28;20029;-63
2023/03/28 03:50:19;;;;;;;3.97;1.88;;;;;;;;;;5054936;28;20028;-64
2023/03/28 03:52:45;;;;;;;3.55;1.40;;;;;;;;;;5055218;28;20017;-64
2023/03/28 03:55:13;;;;;;;5.85;1.50;;;;;;;;;;5054432;28;20025;-64
2023/03/28 03:57:40;;;;;;;5.18;1.50;;;;;;;;;;5054726;28;20051;-64
2023/03/28 04:00:10;;;;;;;6.82;2.15;;;;;;;;;;5054498;28;20384;-63
2023/03/28 04:02:37;;;;;;;7.00;1.58;;;;;;;;;;5054697;28;20385;-64
2023/03/28 04:05:04;;;;;;;3.20;1.50;;;;;;;;;;5054558;28;20040;-64
2023/03/28 04:07:31;;;;;;;4.18;1.48;;;;;;;;;;5054532;28;20392;-64
2023/03/28 04:09:58;;;;;;;5.97;2.60;;;;;;;;;;5054328;28;20028;-64
2023/03/28 04:12:24;;;;;;;7.63;1.88;;;;;;;;;;5054617;28;20035;-64
2023/03/28 04:14:50;;;;;;;3.10;1.50;;;;;;;;;;5054586;28;20021;-64
2023/03/28 04:17:20;;;;;;;3.60;1.60;;;;;;;;;;5053216;28;20039;-63
2023/03/28 04:19:48;;;;;;;4.43;1.42;;;;;;;;;;5054384;28;20033;-63
2023/03/28 04:22:17;;;;;;;3.75;1.30;;;;;;;;;;5054164;28;20032;-64
2023/03/28 04:24:43;;;;;;;5.95;1.88;;;;;;;;;;5054032;28;20017;-63
2023/03/28 04:27:11;;;;;;;4.85;1.15;;;;;;;;;;5054205;28;20039;-64
2023/03/28 04:29:38;;;;;;;7.85;1.70;;;;;;;;;;5053832;28;20041;-64
2023/03/28 04:32:05;;;;;;;5.00;1.70;;;;;;;;;;5054347;28;20029;-63
2023/03/28 04:34:32;;;;;;;4.75;1.52;;;;;;;;;;5053611;28;20432;-64
2023/03/28 04:37:02;;;;;;;6.82;1.88;;;;;;;;;;5054045;28;20077;-64
2023/03/28 04:39:29;;;;;;;4.25;1.48;;;;;;;;;;5053680;28;20035;-63
2023/03/28 04:42:00;;;;;;;5.63;1.90;;;;;;;;;;5053977;28;20098;-63
2023/03/28 04:44:28;;;;;;;5.72;1.40;;;;;;;;;;5054195;28;20033;-63
2023/03/28 04:46:55;;;;;;;6.28;1.40;;;;;;;;;;5053746;28;20036;-63
2023/03/28 04:49:22;;;;;;;7.75;1.55;;;;;;;;;;5053683;28;20535;-63
2023/03/28 04:51:49;;;;;;;7.18;1.73;;;;;;;;;;5053634;28;20021;-63
2023/03/28 04:54:16;;;;;;;3.88;1.33;;;;;;;;;;5053418;28;20408;-64
2023/03/28 04:56:48;;;;;;;5.75;1.58;;;;;;;;;;5053652;28;20021;-64
2023/03/28 04:59:15;;;;;;;5.05;2.08;;;;;;;;;;5053459;28;20021;-63
2023/03/28 05:01:47;;;;;;;6.50;2.20;;;;;;;;;;5053671;28;20017;-63
2023/03/28 05:04:14;;;;;;;8.45;2.85;;;;;;;;;;5053565;28;20033;-63
2023/03/28 05:06:40;;;;;;;8.30;2.20;;;;;;;;;;5053536;28;20021;-63
2023/03/28 05:09:07;;;;;;;8.07;2.65;;;;;;;;;;5052916;28;20494;-64
2023/03/28 05:11:33;;;;;;;10.63;2.20;;;;;;;;;;5053533;28;20513;-63
2023/03/28 05:14:00;;;;;;;9.40;2.35;;;;;;;;;;5053502;28;20028;-63
2023/03/28 05:16:26;;;;;;;5.07;2.05;;;;;;;;;;5053070;28;20462;-63
2023/03/28 05:18:52;;;;;;;5.90;2.30;;;;;;;;;;5053062;28;20032;-63
2023/03/28 05:21:18;;;;;;;8.70;2.20;;;;;;;;;;5052007;28;20024;-64
2023/03/28 05:23:45;;;;;;;5.93;2.20;;;;;;;;;;5051509;28;20031;-64
2023/03/28 05:26:11;;;;;;;4.82;2.60;;;;;;;;;;5053311;28;20029;-63
2023/03/28 05:28:38;;;;;;;7.70;2.22;;;;;;;;;;5052806;28;20061;-63
2023/03/28 05:31:06;;;;;;;8.23;2.67;;;;;;;;;;5052881;28;20041;-63
2023/03/28 05:33:33;;;;;;;10.77;2.95;;;;;;;;;;5053258;28;20025;-63
2023/03/28 05:35:59;;;;;;;10.82;2.70;;;;;;;;;;5052020;28;20022;-63
2023/03/28 05:38:26;;;;;;;6.90;2.42;;;;;;;;;;5052545;28;20021;-63
2023/03/28 05:40:53;;;;;;;6.93;2.88;;;;;;;;;;5052807;28;20032;-64
2023/03/28 05:43:19;;;;;;;7.03;2.30;;;;;;;;;;5052838;28;20021;-63
2023/03/28 05:45:46;;;;;;;10.80;2.25;;;;;;;;;;5052337;28;20029;-64
2023/03/28 05:48:12;;;;;;;5.63;2.10;;;;;;;;;;5052854;28;20035;-63
2023/03/28 05:50:39;;;;;;;4.28;2.53;;;;;;;;;;5052898;28;20059;-63
2023/03/28 05:53:05;;;;;;;9.50;2.85;;;;;;;;;;5052345;28;20021;-64
2023/03/28 05:55:32;;;;;;;9.45;3.17;;;;;;;;;;5052395;28;20025;-63
2023/03/28 05:57:58;;;;;;;7.78;2.00;;;;;;;;;;5052341;28;20025;-64
2023/03/28 06:00:25;;;;;;;6.30;2.05;;;;;;;;;;5051852;28;20038;-64
2023/03/28 06:02:53;;;;;;;8.40;2.42;;;;;;;;;;5051298;28;20033;-64
2023/03/28 06:05:20;;;;;;;6.65;2.25;;;;;;;;;;5052082;28;20025;-64
2023/03/28 06:07:46;;;;;;;10.55;2.50;;;;;;;;;;5051871;28;20029;-64
2023/03/28 06:10:13;;;;;;;13.00;2.80;;;;;;;;;;5052234;28;20053;-64
2023/03/28 06:12:40;;;;;;;7.28;2.58;;;;;;;;;;5052034;28;20017;-63
2023/03/28 06:15:07;;;;;;;7.88;2.72;;;;;;;;;;5052208;28;20033;-64
2023/03/28 06:17:34;;;;;;;8.50;3.03;;;;;;;;;;5051599;28;20023;-63
2023/03/28 06:20:00;;;;;;;12.75;3.22;;;;;;;;;;5048927;28;20059;-64
2023/03/28 06:22:27;;;;;;;5.82;2.42;;;;;;;;;;5049440;28;20037;-63
2023/03/28 06:24:53;;;;;;;10.68;3.08;;;;;;;;;;5050625;28;20035;-64
2023/03/28 06:27:19;;;;;;;17.42;3.47;;;;;;;;;;5051771;28;20037;-64
2023/03/28 06:29:46;;;;;;;5.38;2.80;;;;;;;;;;5051210;28;20434;-64
2023/03/28 06:32:14;;;;;;;7.13;3.28;;;;;;;;;;5051186;28;20029;-64
2023/03/28 06:34:40;;;;;;;8.60;3.45;;;;;;;;;;5051646;28;20024;-64
2023/03/28 06:37:06;;;;;;;10.60;3.40;;;;;;;;;;5050220;28;20389;-64
2023/03/28 06:39:33;;;;;;;10.50;3.20;;;;;;;;;;5051501;28;20025;-63
2023/03/28 06:42:02;;;;;;;8.77;3.28;;;;;;;;;;5051610;28;20020;-63
2023/03/28 06:44:29;;;;;;;9.70;3.20;;;;;;;;;;5051469;28;20389;-64
2023/03/28 06:46:56;;;;;;;10.65;2.88;;;;;;;;;;5051776;28;20046;-64
2023/03/28 06:49:22;;;;;;;12.93;2.83;;;;;;;;;;5049796;28;20033;-63
2023/03/28 06:51:49;;;;;;;6.50;2.30;;;;;;;;;;5050572;28;20025;-64
2023/03/28 06:54:15;;;;;;;9.38;2.75;;;;;;;;;;5050985;28;20504;-63
2023/03/28 06:56:41;;;;;;;9.63;2.92;;;;;;;;;;5051025;28;20044;-64
2023/03/28 06:59:08;;;;;;;6.50;3.38;;;;;;;;;;5053593;28;20021;-63
2023/03/28 07:01:34;;;;;;;8.25;3.92;;;;;;;;;;5054584;28;20025;-64
2023/03/28 07:04:01;;;;;;;10.73;3.85;;;;;;;;;;5054943;28;20476;-64
2023/03/28 07:06:28;;;;;;;12.13;5.22;;;;;;;;;;5055187;28;20029;-64
2023/03/28 07:08:55;;;;;;;7.43;3.65;;;;;;;;;;5052082;28;20486;-64
2023/03/28 07:11:22;;;;;;;9.88;3.80;;;;;;;;;;5057341;28;20027;-64
2023/03/28 07:13:48;;;;;;;5.95;2.78;;;;;;;;;;5052614;28;20021;-65
2023/03/28 07:16:15;;;;;;;7.65;2.92;;;;;;;;;;5052688;28;20040;-64
2023/03/28 07:18:41;;;;;;;14.30;2.95;;;;;;;;;;5054124;28;20036;-64
2023/03/28 07:21:08;;;;;;;9.80;2.92;;;;;;;;;;5053461;28;20024;-64
2023/03/28 07:23:35;;;;;;;8.82;2.88;;;;;;;;;;5052369;28;20039;-63
2023/03/28 07:26:01;;;;;;;11.77;3.85;;;;;;;;;;5053888;28;20025;-64
2023/03/28 07:28:28;;;;;;;9.20;3.58;;;;;;;;;;5053620;28;20056;-64
2023/03/28 07:30:55;;;;;;;7.40;2.88;;;;;;;;;;5053757;28;20511;-64
2023/03/28 07:33:21;;;;;;;7.53;2.42;;;;;;;;;;5053133;28;20374;-65
2023/03/28 07:35:47;;;;;;;7.80;2.30;;;;;;;;;;5053830;28;20043;-65
2023/03/28 07:38:14;;;;;;;8.05;2.10;;;;;;;;;;5053761;28;20403;-65
2023/03/28 07:40:40;;;;;;;4.00;1.90;;;;;;;;;;5053592;28;20017;-65
2023/03/28 07:43:06;;;;;;;6.55;2.25;;;;;;;;;;5053055;28;20526;-65
2023/03/28 07:45:33;;;;;;;4.70;2.28;;;;;;;;;;5053126;28;20040;-64
2023/03/28 07:47:59;;;;;;;6.28;2.20;;;;;;;;;;5052804;28;20493;-64
2023/03/28 07:50:26;;;;;;;5.60;2.20;;;;;;;;;;5053392;28;20039;-65
2023/03/28 07:52:56;;;;;;;5.43;2.30;;;;;;;;;;5053374;28;20025;-65
2023/03/28 07:55:25;;;;;;;7.20;1.95;;;;;;;;;;5053154;28;20394;-64
2023/03/28 07:57:52;;;;;;;5.85;2.13;;;;;;;;;;5052831;28;20094;-64
2023/03/28 08:00:22;;;;;;;5.05;2.00;;;;;;;;;;5052362;28;21337;-65
2023/03/28 08:02:49;;;;;;;2.58;1.95;;;;;;;;;;5052909;28;20027;-65
2023/03/28 08:05:16;;;;;;;6.75;2.10;;;;;;;;;;5053174;28;20041;-64
2023/03/28 08:07:44;;;;;;;4.03;1.63;;;;;;;;;;5052549;28;20019;-65
2023/03/28 08:10:11;;;;;;;4.95;2.20;;;;;;;;;;5052688;28;20098;-65
2023/03/28 08:12:37;;;;;;;5.82;2.10;;;;;;;;;;5052047;28;20027;-65
2023/03/28 08:15:04;;;;;;;4.90;2.05;;;;;;;;;;5054118;28;20027;-65
2023/03/28 08:17:31;;;;;;;5.82;1.88;;;;;;;;;;5052516;28;20017;-64
2023/03/28 08:19:57;;;;;;;4.13;1.90;;;;;;;;;;5052803;28;20033;-65
2023/03/28 08:22:25;;;;;;;5.43;1.85;;;;;;;;;;5052951;28;20024;-65
2023/03/28 08:24:51;;;;;;;8.23;2.42;;;;;;;;;;5051748;28;20020;-65
2023/03/28 08:27:17;;;;;;;4.95;1.85;;;;;;;;;;5052872;28;20021;-65
2023/03/28 08:29:44;;;;;;;3.33;1.92;;;;;;;;;;5053758;28;20045;-65
2023/03/28 08:32:10;;;;;;;2.65;1.52;;;;;;;;;;5052750;28;20091;-64
2023/03/28 08:34:37;;;;;;;6.07;1.85;;;;;;;;;;5052714;28;20538;-65
2023/03/28 08:37:04;;;;;;;6.18;1.90;;;;;;;;;;5053279;28;20027;-65
2023/03/28 08:39:32;;;;;;;4.65;2.13;;;;;;;;;;5052614;28;20036;-65
2023/03/28 08:42:08;;;;;;;7.22;1.95;;;;;;;;;;5049502;28;20021;-65
2023/03/28 08:44:45;;;;;;;7.43;2.15;;;;;;;;;;5051405;28;20039;-63
2023/03/28 08:47:18;;;;;;;3.15;1.80;;;;;;;;;;5071908;28;20031;-65
2023/03/28 08:49:49;;;;;;;2.45;1.38;;;;;;;;;;5051290;28;20036;-65
2023/03/28 08:52:18;;;;;;;6.90;1.75;;;;;;;;;;5052214;28;20021;-65
2023/03/28 08:54:51;;;;;;;2.88;1.45;;;;;;;;;;5051911;28;20028;-65
2023/03/28 08:57:22;;;;;;;2.50;1.30;;;;;;;;;;5072133;28;20085;-65
2023/03/28 08:59:55;;;;;;;3.35;1.80;;;;;;;;;;5061373;28;20021;-65
2023/03/28 09:02:25;;;;;;;2.35;1.48;;;;;;;;;;5031779;28;20029;-65
2023/03/28 09:04:51;;;;;;;;;;;;;;;;;;5043916;28;20032;-64
2023/03/28 09:07:21;;;;;;;3.60;1.92;;;;;;;;;;5052303;28;20262;-64
2023/03/28 09:10:16;;;;;;;4.13;2.28;;;;;;;;;;5050820;28;20033;-65
2023/03/28 09:12:51;;;;;;;6.50;2.40;;;;;;;;;;5029831;28;20059;-65
2023/03/28 09:15:34;;;;;;;3.10;2.00;;;;;;;;;;5028845;28;20036;-63
2023/03/28 09:18:03;;;;;;;4.63;2.22;;;;;;;;;;5029241;28;20043;-65
2023/03/28 09:20:35;;;;;;;4.90;2.10;;;;;;;;;;5028118;28;20047;-65
2023/03/28 09:23:08;;;;;;;4.30;1.98;;;;;;;;;;5029476;28;20510;-65
2023/03/28 09:25:43;;;;;;;4.45;2.20;;;;;;;;;;5021822;28;20038;-63
2023/03/28 09:28:22;;;;;;;3.83;2.00;;;;;;;;;;4995975;28;20044;-65
2023/03/28 09:30:50;;;;;;;5.80;2.03;;;;;;;;;;5007813;28;20044;-65
2023/03/28 09:33:20;;;;;;;5.50;1.90;;;;;;;;;;5009495;28;20401;-65
2023/03/28 09:35:48;;;;;;;5.55;1.92;;;;;;;;;;5009284;28;20042;-65
2023/03/28 09:38:34;;;;;;;4.22;1.80;;;;;;;;;;5009259;28;20026;-65
2023/03/28 09:41:02;;;;;;;5.22;2.08;;;;;;;;;;5008890;28;20032;-63
2023/03/28 09:43:28;;;;;;;3.15;1.65;;;;;;;;;;5005686;28;20505;-65
2023/03/28 09:46:01;;;;;;;5.10;1.83;;;;;;;;;;5015393;28;20025;-65
2023/03/28 09:48:29;;;;;;;4.07;1.90;;;;;;;;;;5028891;28;20041;-65
2023/03/28 09:50:57;;;;;;;4.95;1.77;;;;;;;;;;5051540;28;20017;-64
2023/03/28 09:53:25;;;;;;;4.15;1.77;;;;;;;;;;5051867;28;20089;-65
2023/03/28 09:55:53;;;;;;;5.45;1.80;;;;;;;;;;5050878;28;20028;-66
2023/03/28 09:58:19;;;;;;;5.72;1.90;;;;;;;;;;5051273;28;20053;-64
2023/03/28 10:00:48;;;;;;;5.88;1.88;;;;;;;;;;5051036;28;20017;-65
2023/03/28 10:03:28;;;;;;;4.50;2.05;;;;;;;;;;5050591;28;20511;-65
2023/03/28 10:05:56;;;;;;;5.10;2.13;;;;;;;;;;5049326;28;20043;-65
2023/03/28 10:08:22;;;;;;;3.22;2.03;;;;;;;;;;5050609;28;20037;-65
2023/03/28 10:10:56;;;;;;;6.90;2.55;;;;;;;;;;5050858;28;20029;-66
2023/03/28 10:13:22;;;;;;;4.07;2.20;;;;;;;;;;5050708;28;20504;-65
2023/03/28 10:15:49;;;;;;;6.57;2.35;;;;;;;;;;5048216;28;20021;-65
2023/03/28 10:18:20;;;;;;;6.32;2.17;;;;;;;;;;5052568;28;20035;-64
2023/03/28 10:20:50;;;;;;;4.95;2.10;;;;;;;;;;5050786;28;20025;-65
2023/03/28 10:23:16;;;;;;;3.42;1.63;;;;;;;;;;5050943;28;20021;-65
2023/03/28 10:25:44;;;;;;;3.47;1.50;;;;;;;;;;5050520;28;20037;-65
2023/03/28 10:28:16;;;;;;;2.60;1.58;;;;;;;;;;5048784;28;20364;-65
2023/03/28 10:30:43;;;;;;;2.95;1.38;;;;;;;;;;5050857;28;20039;-65
2023/03/28 10:33:15;;;;;;;4.75;1.30;;;;;;;;;;5049022;28;20031;-65
2023/03/28 10:35:53;;;;;;;6.50;1.27;;;;;;;;;;5050223;28;20089;-65
2023/03/28 10:38:21;;;;;;;6.05;1.50;;;;;;;;;;5050574;28;20393;-66
2023/03/28 10:40:52;;;;;;;2.70;1.25;;;;;;;;;;5049530;28;20029;-65
2023/03/28 10:43:18;;;;;;;1.90;1.15;;;;;;;;;;5050831;28;20025;-64
2023/03/28 10:45:45;;;;;;;3.50;1.50;;;;;;;;;;5050482;28;20051;-65
2023/03/28 10:48:17;;;;;;;2.42;1.30;;;;;;;;;;5049901;28;20035;-65
2023/03/28 10:50:48;;;;;;;2.67;1.20;;;;;;;;;;5050589;28;20035;-65
2023/03/28 10:53:32;;;;;;;4.53;1.50;;;;;;;;;;5049544;28;20028;-65
2023/03/28 10:56:12;;;;;;;3.97;1.50;;;;;;;;;;5050269;28;20025;-65
2023/03/28 10:58:46;;;;;;;7.43;1.10;;;;;;;;;;5050611;28;20021;-65
2023/03/28 11:01:21;;;;;;;2.13;1.27;;;;;;;;;;5050525;28;20432;-65
2023/03/28 11:03:47;;;;;;;5.70;1.35;;;;;;;;;;5050318;28;20082;-65
2023/03/28 11:06:18;;;;;;;1.83;1.08;;;;;;;;;;5050438;28;20506;-62
2023/03/28 11:09:23;;;;;;;5.95;1.20;;;;;;;;;;5049998;28;20029;-63
2023/03/28 11:11:50;;;;;;;2.47;1.38;;;;;;;;;;5027572;28;20033;-63
2023/03/28 11:14:35;;;;;;;2.13;1.13;;;;;;;;;;5028122;28;20461;-64
2023/03/28 11:17:01;;;;;;;4.53;1.42;;;;;;;;;;5028767;28;20040;-63
2023/03/28 11:19:42;;;;;;;2.75;1.35;;;;;;;;;;5029219;28;20043;-64
2023/03/28 11:22:21;;;;;;;1.27;0.90;;;;;;;;;;5016274;28;20030;-65
2023/03/28 11:24:56;;;;;;;1.92;0.82;;;;;;;;;;5027950;28;20030;-65
2023/03/28 11:27:25;;;;;;;2.80;1.13;;;;;;;;;;5036406;28;20025;-64
2023/03/28 11:29:58;;;;;;;1.80;1.00;;;;;;;;;;5047633;28;20059;-64
2023/03/28 11:32:40;;;;;;;3.28;1.23;;;;;;;;;;5025063;28;20513;-65
2023/03/28 11:35:06;;;;;;;2.20;1.13;;;;;;;;;;5017262;28;20036;-65
2023/03/28 11:37:44;;;;;;;3.63;1.40;;;;;;;;;;5021781;28;20037;-65
2023/03/28 11:40:34;;;;;;;3.22;1.25;;;;;;;;;;5027445;28;20413;-65
2023/03/28 11:43:03;;;;;;;2.22;1.20;;;;;;;;;;5024200;28;20043;-65
2023/03/28 11:45:36;;;;;;;2.50;1.50;;;;;;;;;;5053693;28;20497;-65
2023/03/28 11:48:18;;;;;;;1.77;1.15;;;;;;;;;;5053548;28;20029;-65
2023/03/28 11:50:56;;;;;;;3.20;1.20;;;;;;;;;;5053652;28;20039;-65
2023/03/28 11:53:25;;;;;;;1.35;0.90;;;;;;;;;;5052828;28;20024;-65
2023/03/28 11:56:12;;;;;;;1.33;0.82;;;;;;;;;;5053369;28;20031;-65
2023/03/28 11:58:43;;;;;;;2.60;1.00;;;;;;;;;;5030918;28;20083;-65
2023/03/28 12:01:12;;;;;;;2.33;0.93;;;;;;;;;;5031192;28;20045;-65
2023/03/28 12:03:56;;;;;;;3.05;0.90;;;;;;;;;;5030522;28;20041;-65
2023/03/28 12:06:38;;;;;;;1.20;0.90;;;;;;;;;;5030820;28;20096;-64
2023/03/28 12:09:08;;;;;;;1.92;1.13;;;;;;;;;;5030521;28;20094;-64
2023/03/28 12:11:40;;;;;;;4.68;1.10;;;;;;;;;;5014327;28;20034;-65
2023/03/28 12:14:21;;;;;;;0.73;0.73;;;;;;;;;;5030909;28;20479;-65
2023/03/28 12:16:49;;;;;;;1.73;0.82;;;;;;;;;;5030559;28;20094;-65
2023/03/28 12:19:20;;;;;;;1.08;0.80;;;;;;;;;;5030806;28;20029;-65
2023/03/28 12:21:50;;;;;;;1.58;0.90;;;;;;;;;;5030446;28;20035;-65
2023/03/28 12:24:22;;;;;;;1.40;0.65;;;;;;;;;;5030292;28;20021;-65
2023/03/28 12:26:49;;;;;;;1.17;0.88;;;;;;;;;;5017040;28;20030;-65
2023/03/28 12:29:34;;;;;;;0.70;0.70;;;;;;;;;;5011459;28;20421;-65
2023/03/28 12:32:24;;;;;;;1.00;0.70;;;;;;;;;;5010688;28;20042;-64
2023/03/28 12:34:54;;;;;;;0.70;0.70;;;;;;;;;;5014302;28;20449;-65
2023/03/28 12:37:32;;;;;;;1.10;0.75;;;;;;;;;;5049584;28;20025;-65
2023/03/28 12:40:11;;;;;;;1.00;0.77;;;;;;;;;;5051582;28;20025;-64
2023/03/28 12:42:39;;;;;;;0.80;0.80;;;;;;;;;;5057633;28;20027;-64
2023/03/28 12:45:08;;;;;;;0.52;0.52;;;;;;;;;;5052711;28;20028;-63
2023/03/28 12:47:43;;;;;;;0.98;0.60;;;;;;;;;;5051679;28;20029;-62
2023/03/28 12:50:13;;;;;;;1.95;1.15;;;;;;;;;;5051965;28;20045;-64
2023/03/28 12:52:42;;;;;;;0.60;0.60;;;;;;;;;;5051675;28;20075;-63
2023/03/28 12:55:24;;;;;;;1.08;0.73;;;;;;;;;;5053877;28;20074;-63
2023/03/28 12:57:51;;;;;;;0.60;0.60;;;;;;;;;;5054525;28;20389;-63
2023/03/28 13:00:29;;;;;;;1.35;0.60;;;;;;;;;;5051854;28;20032;-64
2023/03/28 13:03:04;;;;;;;0.52;0.52;;;;;;;;;;5052004;28;19921;-63
2023/03/28 13:05:33;;;;;;;1.65;0.70;;;;;;;;;;5051815;28;20033;-65
2023/03/28 13:07:59;;;;;;;2.22;0.60;;;;;;;;;;5051835;28;20075;-64
2023/03/28 13:10:32;;;;;;;0.70;0.57;;;;;;;;;;5050143;28;20029;-64
2023/03/28 13:12:59;;;;;;;0.65;0.65;;;;;;;;;;5051500;28;20017;-65
2023/03/28 13:15:30;;;;;;;0.77;0.60;;;;;;;;;;5050236;28;20040;-64
2023/03/28 13:18:15;;;;;;;1.42;0.63;;;;;;;;;;5051625;28;20025;-64
2023/03/28 13:20:45;;;;;;;0.82;0.80;;;;;;;;;;5051310;28;20040;-65
2023/03/28 13:23:13;;;;;;;0.68;0.68;;;;;;;;;;5051348;28;20033;-64
2023/03/28 13:25:41;;;;;;;1.23;0.70;;;;;;;;;;5051654;28;20021;-65
2023/03/28 13:28:10;;;;;;;0.88;0.60;;;;;;;;;;5051192;28;20045;-64
2023/03/28 13:30:39;;;;;;;1.03;0.70;;;;;;;;;;5051263;28;20464;-64
2023/03/28 13:33:26;;;;;;;2.72;0.70;;;;;;;;;;5051347;28;20493;-64
2023/03/28 13:35:58;;;;;;;0.95;0.57;;;;;;;;;;5050220;28;20033;-64
2023/03/28 13:38:27;;;;;;;0.90;0.70;;;;;;;;;;5050768;28;20055;-65
2023/03/28 13:40:58;;;;;;;0.88;0.65;;;;;;;;;;5051195;28;20066;-64
2023/03/28 13:43:27;;;;;;;0.70;0.70;;;;;;;;;;5051105;28;20035;-64
2023/03/28 13:45:58;;;;;;;0.60;0.55;;;;;;;;;;5050127;28;20033;-64
2023/03/28 13:48:28;;;;;;;0.70;0.70;;;;;;;;;;5051095;28;20074;-63
2023/03/28 13:50:56;;;;;;;0.73;0.60;;;;;;;;;;5050716;28;20039;-64
2023/03/28 13:53:23;;;;;;;1.33;0.60;;;;;;;;;;5051017;28;20035;-64
2023/03/28 13:56:06;;;;;;;0.70;0.60;;;;;;;;;;5049489;28;20021;-63
2023/03/28 13:58:32;;;;;;;2.50;0.50;;;;;;;;;;5050110;28;20039;-64
2023/03/28 14:01:14;;;;;;;1.58;0.70;;;;;;;;;;5050636;28;20425;-63
2023/03/28 14:03:40;;;;;;;0.60;0.60;;;;;;;;;;5050941;28;20035;-64
2023/03/28 14:06:42;;;;;;;2.50;0.70;;;;;;;;;;5048857;28;20037;-64
2023/03/28 14:09:18;;;;;;;3.33;0.70;;;;;;;;;;5007998;28;20036;-64
2023/03/28 14:11:45;;;;;;;0.50;0.50;;;;;;;;;;5009229;28;20026;-64
2023/03/28 14:14:37;;;;;;;1.00;0.70;;;;;;;;;;5008523;28;20048;-63
2023/03/28 14:17:05;;;;;;;0.57;0.55;;;;;;;;;;5004662;28;20050;-63
2023/03/28 14:19:37;;;;;;;2.38;0.60;;;;;;;;;;5008198;28;20038;-64
2023/03/28 14:22:07;;;;;;;1.23;0.90;;;;;;;;;;5008427;28;20032;-63
2023/03/28 14:24:34;;;;;;;0.88;0.88;;;;;;;;;;5007932;28;20675;-63
2023/03/28 14:27:12;;;;;;;2.60;0.82;;;;;;;;;;5007971;28;20091;-63
2023/03/28 14:30:05;;;;;;;0.68;0.68;;;;;;;;;;5007863;28;20058;-63
2023/03/28 14:32:31;;;;;;;0.75;0.75;;;;;;;;;;4930362;29;20039;-64
2023/03/28 14:35:24;;;;;;;0.55;0.55;;;;;;;;;;4930516;29;20084;-64
2023/03/28 14:37:55;;;;;;;1.25;0.73;;;;;;;;;;4926549;29;20054;-63
2023/03/28 14:40:24;;;;;;;2.22;0.70;;;;;;;;;;4929929;29;20036;-63
2023/03/28 14:42:55;;;;;;;2.22;0.65;;;;;;;;;;4953122;28;20122;-63
2023/03/28 14:45:24;;;;;;;2.05;0.63;;;;;;;;;;4987217;28;20038;-63
2023/03/28 14:47:50;;;;;;;1.08;0.70;;;;;;;;;;4988262;28;20034;-63
2023/03/28 14:50:17;;;;;;;2.33;0.77;;;;;;;;;;4987526;28;20562;-63
2023/03/28 14:52:44;;;;;;;0.75;0.60;;;;;;;;;;4987763;28;20560;-62
2023/03/28 14:55:22;;;;;;;0.70;0.70;;;;;;;;;;4987751;28;20446;-62
2023/03/28 14:57:50;;;;;;;1.08;0.60;;;;;;;;;;4987115;28;20033;-63
2023/03/28 15:00:20;;;;;;;1.30;0.60;;;;;;;;;;4987031;28;20038;-63
2023/03/28 15:02:47;;;;;;;0.55;0.50;;;;;;;;;;4968833;28;20228;-63